createdAt,value
2022-08-02T00:01:49.063Z,8.82
2022-08-02T00:04:27.782Z,7.63
2022-08-02T00:07:06.731Z,11.07
2022-08-02T00:09:38.958Z,13.38
2022-08-02T00:12:09.483Z,9.70
2022-08-02T00:14:38.066Z,8.70
2022-08-02T00:17:06.576Z,9.32
2022-08-02T00:19:38.948Z,7.15
2022-08-02T00:22:15.193Z,6.80
2022-08-02T00:24:48.685Z,12.00
2022-08-02T00:27:20.798Z,10.18
2022-08-02T00:29:55.908Z,8.50
2022-08-02T00:32:43.879Z,5.78
2022-08-02T00:35:11.579Z,6.85
2022-08-02T00:37:40.835Z,11.88
2022-08-02T00:40:17.577Z,6.10
2022-08-02T00:43:05.837Z,12.52
2022-08-02T00:46:02.809Z,8.27
2022-08-02T00:48:27.744Z,8.48
2022-08-02T00:50:54.936Z,7.28
2022-08-02T00:53:24.956Z,10.63
2022-08-02T00:56:00.813Z,8.52
2022-08-02T00:58:35.030Z,7.82
2022-08-02T01:01:02.591Z,6.47
2022-08-02T01:03:31.988Z,11.57
2022-08-02T01:06:18.220Z,4.35
2022-08-02T01:09:00.081Z,5.00
2022-08-02T01:11:32.886Z,9.38
2022-08-02T01:14:14.983Z,6.78
2022-08-02T01:17:03.743Z,10.88
2022-08-02T01:20:01.512Z,8.95
2022-08-02T01:23:02.891Z,9.23
2022-08-02T01:25:42.984Z,9.05
2022-08-02T01:28:23.889Z,11.70
2022-08-02T01:30:58.003Z,7.35
2022-08-02T01:33:38.279Z,13.02
2022-08-02T01:36:14.337Z,8.40
2022-08-02T01:38:48.844Z,7.90
2022-08-02T01:41:28.691Z,7.40
2022-08-02T01:44:04.017Z,11.43
2022-08-02T01:46:36.490Z,10.90
2022-08-02T01:49:09.620Z,9.90
2022-08-02T01:51:58.957Z,7.68
2022-08-02T01:54:30.936Z,7.35
2022-08-02T01:57:07.511Z,12.13
2022-08-02T01:59:40.164Z,10.07
2022-08-02T02:02:23.453Z,7.70
2022-08-02T02:04:59.986Z,8.02
2022-08-02T02:07:31.317Z,6.93
2022-08-02T02:10:05.345Z,7.35
2022-08-02T02:12:47.956Z,9.27
2022-08-02T02:15:22.640Z,10.32
2022-08-02T02:18:12.630Z,12.40
2022-08-02T02:20:50.047Z,9.80
2022-08-02T02:23:26.056Z,8.40
2022-08-02T02:25:56.844Z,7.20
2022-08-02T02:28:43.250Z,7.10
2022-08-02T02:31:33.335Z,6.78
2022-08-02T02:34:06.837Z,9.13
2022-08-02T02:36:43.418Z,5.93
2022-08-02T02:39:21.513Z,9.52
2022-08-02T02:42:00.247Z,6.47
2022-08-02T02:44:28.614Z,5.30
2022-08-02T02:47:00.271Z,8.70
2022-08-02T02:49:28.833Z,10.30
2022-08-02T02:51:58.168Z,7.68
2022-08-02T02:54:34.366Z,9.25
2022-08-02T02:57:07.107Z,9.25
2022-08-02T02:59:49.674Z,8.32
2022-08-02T03:02:21.667Z,6.07
2022-08-02T03:05:03.152Z,9.50
2022-08-02T03:07:35.932Z,7.93
2022-08-02T03:10:13.844Z,7.00
2022-08-02T03:12:41.406Z,8.68
2022-08-02T03:15:16.713Z,9.20
2022-08-02T03:17:55.472Z,6.90
2022-08-02T03:20:27.451Z,8.35
2022-08-02T03:22:58.152Z,10.18
2022-08-02T03:25:25.625Z,10.75
2022-08-02T03:27:53.285Z,8.90
2022-08-02T03:30:20.758Z,8.05
2022-08-02T03:32:59.376Z,7.80
2022-08-02T03:35:26.936Z,5.33
2022-08-02T03:38:01.942Z,12.50
2022-08-02T03:40:30.347Z,10.50
2022-08-02T03:42:57.646Z,8.95
2022-08-02T03:45:25.733Z,12.43
2022-08-02T03:47:52.530Z,9.82
2022-08-02T03:50:19.885Z,14.10
2022-08-02T03:52:48.041Z,5.53
2022-08-02T03:55:15.165Z,7.15
2022-08-02T03:57:43.201Z,9.48
2022-08-02T04:00:13.074Z,6.57
2022-08-02T04:02:39.961Z,7.72
2022-08-02T04:05:06.784Z,6.53
2022-08-02T04:08:34.457Z,8.70
2022-08-02T04:10:19.882Z,12.55
2022-08-02T04:12:46.535Z,8.57
2022-08-02T04:15:14.859Z,9.13
2022-08-02T04:17:46.102Z,6.53
2022-08-02T04:20:20.133Z,7.50
2022-08-02T04:22:57.655Z,11.23
2022-08-02T04:25:34.286Z,9.05
2022-08-02T04:28:16.558Z,8.60
2022-08-02T04:30:45.508Z,10.18
2022-08-02T04:33:12.454Z,30.48
2022-08-02T04:35:39.090Z,33.75
2022-08-02T04:38:09.272Z,28.65
2022-08-02T04:40:37.609Z,27.55
2022-08-02T04:43:04.262Z,37.03
2022-08-02T04:45:31.293Z,21.02
2022-08-02T04:48:06.038Z,25.02
2022-08-02T04:50:33.428Z,20.48
2022-08-02T04:53:00.029Z,23.13
2022-08-02T04:55:30.717Z,18.15
2022-08-02T04:57:58.785Z,21.08
2022-08-02T05:00:27.780Z,20.25
2022-08-02T05:02:56.033Z,23.75
2022-08-02T05:05:23.035Z,25.63
2022-08-02T05:07:49.583Z,29.38
2022-08-02T05:10:16.179Z,30.48
2022-08-02T05:12:42.773Z,25.67
2022-08-02T05:15:12.863Z,25.23
2022-08-02T05:17:47.511Z,24.17
2022-08-02T05:20:18.725Z,28.75
2022-08-02T05:22:45.783Z,31.27
2022-08-02T05:25:12.557Z,33.42
2022-08-02T05:27:39.252Z,36.70
2022-08-02T05:30:06.883Z,35.17
2022-08-02T05:32:33.503Z,35.58
2022-08-02T05:35:01.957Z,40.58
2022-08-02T05:37:31.818Z,42.60
2022-08-02T05:39:58.990Z,41.95
2022-08-02T05:42:27.589Z,41.28
2022-08-02T05:44:55.294Z,41.92
2022-08-02T05:47:24.100Z,40.92
2022-08-02T05:49:50.657Z,42.15
2022-08-02T05:52:20.926Z,44.00
2022-08-02T05:55:09.808Z,44.20
2022-08-02T05:58:20.865Z,40.10
2022-08-02T06:00:50.124Z,45.42
2022-08-02T06:03:26.193Z,43.65
2022-08-02T06:06:14.064Z,42.72
2022-08-02T06:08:48.366Z,42.88
2022-08-02T06:11:17.921Z,45.03
2022-08-02T06:13:46.038Z,44.08
2022-08-02T06:16:14.841Z,50.88
2022-08-02T06:18:42.741Z,43.47
2022-08-02T06:22:32.542Z,43.60
2022-08-02T06:23:59.351Z,33.10
2022-08-02T06:26:28.017Z,32.92
2022-08-02T06:28:57.075Z,24.52
2022-08-02T06:31:23.752Z,20.92
2022-08-02T06:33:50.290Z,25.17
2022-08-02T06:36:27.404Z,20.08
2022-08-02T06:39:04.042Z,21.00
2022-08-02T06:41:42.200Z,21.27
2022-08-02T06:44:45.231Z,23.17
2022-08-02T06:47:11.671Z,19.27
2022-08-02T06:49:52.485Z,22.35
2022-08-02T06:52:30.820Z,24.67
2022-08-02T06:55:03.247Z,24.02
2022-08-02T06:57:30.573Z,25.17
2022-08-02T06:59:58.275Z,25.90
2022-08-02T07:02:24.960Z,24.73
2022-08-02T07:04:51.621Z,25.92
2022-08-02T07:07:18.224Z,23.98
2022-08-02T07:09:56.971Z,28.25
2022-08-02T07:12:29.758Z,27.58
2022-08-02T07:14:57.081Z,28.30
2022-08-02T07:17:23.584Z,26.60
2022-08-02T07:19:50.080Z,25.85
2022-08-02T07:22:18.643Z,27.08
2022-08-02T07:24:45.465Z,24.02
2022-08-02T07:27:12.843Z,24.13
2022-08-02T07:29:46.165Z,22.52
2022-08-02T07:32:18.224Z,25.85
2022-08-02T07:34:51.194Z,20.40
2022-08-02T07:37:53.173Z,19.80
2022-08-02T07:40:14.056Z,20.17
2022-08-02T07:42:43.062Z,19.50
2022-08-02T07:45:10.883Z,20.45
2022-08-02T07:47:41.422Z,20.42
2022-08-02T07:50:08.983Z,20.50
2022-08-02T07:52:36.345Z,19.98
2022-08-02T07:55:03.105Z,18.80
2022-08-02T07:57:29.579Z,19.80
2022-08-02T07:59:56.066Z,21.63
2022-08-02T08:02:24.627Z,18.08
2022-08-02T08:04:51.746Z,19.33
2022-08-02T08:07:18.416Z,21.98
2022-08-02T08:09:47.317Z,20.23
2022-08-02T08:12:15.967Z,22.73
2022-08-02T08:17:10.252Z,16.45
2022-08-02T08:19:50.807Z,16.40
2022-08-02T08:22:19.281Z,18.85
2022-08-02T08:24:45.843Z,14.77
2022-08-02T08:27:15.426Z,17.38
2022-08-02T08:29:43.053Z,14.10
2022-08-02T08:32:14.089Z,15.00
2022-08-02T08:34:43.065Z,15.80
2022-08-02T08:37:09.696Z,15.77
2022-08-02T08:39:56.159Z,14.13
2022-08-02T08:42:24.458Z,11.90
2022-08-02T08:44:51.484Z,13.57
2022-08-02T08:47:19.001Z,13.00
2022-08-02T08:49:52.732Z,12.98
2022-08-02T08:52:27.534Z,8.18
2022-08-02T08:54:55.940Z,8.00
2022-08-02T08:57:29.595Z,11.18
2022-08-02T08:59:56.515Z,9.00
2022-08-02T09:02:28.053Z,5.43
2022-08-02T09:04:55.471Z,6.65
2022-08-02T09:07:23.298Z,5.85
2022-08-02T09:09:49.947Z,9.65
2022-08-02T09:12:18.216Z,8.02
2022-08-02T09:14:46.472Z,8.60
2022-08-02T09:17:18.228Z,8.05
2022-08-02T09:19:46.024Z,4.93
2022-08-02T09:22:15.484Z,7.28
2022-08-02T09:24:49.749Z,7.25
2022-08-02T09:27:19.043Z,11.15
2022-08-02T09:32:45.645Z,7.25
2022-08-02T09:35:12.270Z,6.72
2022-08-02T09:37:38.782Z,4.68
2022-08-02T09:40:06.910Z,5.85
2022-08-02T09:42:34.297Z,4.53
2022-08-02T09:45:02.457Z,6.82
2022-08-02T09:47:30.942Z,7.68
2022-08-02T09:49:58.693Z,6.97
2022-08-02T09:52:37.473Z,4.65
2022-08-02T09:55:11.468Z,4.85
2022-08-02T09:57:38.641Z,3.53
2022-08-02T10:00:14.252Z,6.10
2022-08-02T10:05:32.278Z,5.50
2022-08-02T10:08:08.622Z,4.80
2022-08-02T10:10:35.161Z,4.63
2022-08-02T10:13:01.712Z,3.95
2022-08-02T10:15:28.306Z,4.60
2022-08-02T10:17:55.011Z,6.63
2022-08-02T10:20:22.250Z,7.15
2022-08-02T10:22:50.491Z,5.00
2022-08-02T10:25:17.813Z,2.72
2022-08-02T10:28:04.234Z,5.18
2022-08-02T10:30:32.113Z,3.20
2022-08-02T10:33:01.119Z,3.20
2022-08-02T10:35:31.169Z,3.20
2022-08-02T10:38:03.355Z,3.22
2022-08-02T10:40:47.895Z,2.97
2022-08-02T10:43:36.988Z,3.65
2022-08-02T10:52:01.550Z,4.10
2022-08-02T10:55:02.190Z,2.92
2022-08-02T10:57:36.415Z,2.97
2022-08-02T11:00:17.357Z,3.03
2022-08-02T11:02:53.412Z,4.05
2022-08-02T11:05:42.179Z,4.63
2022-08-02T11:08:20.796Z,3.50
2022-08-02T11:10:48.046Z,2.97
2022-08-02T11:13:17.497Z,2.85
2022-08-02T11:16:02.006Z,5.70
2022-08-02T11:18:52.026Z,2.65
2022-08-02T11:21:29.671Z,3.08
2022-08-02T11:23:56.759Z,3.78
2022-08-02T11:26:29.356Z,4.90
2022-08-02T11:29:01.162Z,5.55
2022-08-02T11:31:29.040Z,4.20
2022-08-02T11:33:55.740Z,6.40
2022-08-02T11:36:22.984Z,3.28
2022-08-02T11:38:49.909Z,4.18
2022-08-02T11:41:46.901Z,4.80
2022-08-02T11:44:10.565Z,3.65
2022-08-02T11:46:37.151Z,4.50
2022-08-02T11:49:18.343Z,5.85
2022-08-02T11:52:00.516Z,5.03
2022-08-02T11:54:35.707Z,5.95
2022-08-02T11:57:19.799Z,5.28
2022-08-02T11:59:57.244Z,1.98
2022-08-02T12:02:31.557Z,3.10
2022-08-02T12:05:01.078Z,3.85
2022-08-02T12:07:35.447Z,3.95
2022-08-02T12:10:16.807Z,4.15
2022-08-02T12:12:59.187Z,3.55
2022-08-02T12:15:46.165Z,2.83
2022-08-02T12:18:37.451Z,4.97
2022-08-02T12:21:20.197Z,4.00
2022-08-02T12:23:59.438Z,5.78
2022-08-02T12:26:28.486Z,6.28
2022-08-02T12:28:57.651Z,2.67
2022-08-02T12:34:29.989Z,6.53
2022-08-02T12:37:10.893Z,2.88
2022-08-02T12:39:45.890Z,4.65
2022-08-02T12:42:15.869Z,7.05
2022-08-02T12:44:56.154Z,6.05
2022-08-02T12:47:22.716Z,5.25
2022-08-02T12:50:18.465Z,3.58
2022-08-02T12:52:46.908Z,1.75
2022-08-02T12:55:22.722Z,4.43
2022-08-02T12:58:01.367Z,6.50
2022-08-02T13:00:36.461Z,3.35
2022-08-02T13:03:07.287Z,4.57
2022-08-02T13:05:56.928Z,7.03
2022-08-02T13:08:27.376Z,4.32
2022-08-02T13:10:54.000Z,3.55
2022-08-02T13:13:20.597Z,4.10
2022-08-02T13:15:51.081Z,2.63
2022-08-02T13:18:18.616Z,2.92
2022-08-02T13:20:45.415Z,2.60
2022-08-02T13:23:21.099Z,3.83
2022-08-02T13:25:52.482Z,3.78
2022-08-02T13:28:19.437Z,4.35
2022-08-02T13:30:47.032Z,4.05
2022-08-02T13:33:14.082Z,5.15
2022-08-02T13:35:40.763Z,6.38
2022-08-02T13:38:09.258Z,3.50
2022-08-02T13:41:04.235Z,4.80
2022-08-02T13:43:53.531Z,3.05
2022-08-02T13:46:18.291Z,2.58
2022-08-02T13:48:56.152Z,2.88
2022-08-02T13:51:22.776Z,3.53
2022-08-02T13:53:49.415Z,4.82
2022-08-02T13:56:15.952Z,5.90
2022-08-02T13:58:42.744Z,5.63
2022-08-02T14:01:09.575Z,3.55
2022-08-02T14:04:07.708Z,3.63
2022-08-02T14:06:23.270Z,5.90
2022-08-02T14:08:50.061Z,2.45
2022-08-02T14:11:16.985Z,6.03
2022-08-02T14:13:43.733Z,5.82
2022-08-02T14:16:10.679Z,4.60
2022-08-02T14:18:37.697Z,2.28
2022-08-02T14:21:04.400Z,5.40
2022-08-02T14:23:49.764Z,7.25
2022-08-02T14:26:27.081Z,3.05
2022-08-02T14:28:55.132Z,5.07
2022-08-02T14:31:21.761Z,4.05
2022-08-02T14:33:48.265Z,6.00
2022-08-02T14:36:15.153Z,2.50
2022-08-02T14:38:54.157Z,3.42
2022-08-02T14:41:20.788Z,4.03
2022-08-02T14:44:05.707Z,3.20
2022-08-02T14:46:33.552Z,6.45
2022-08-02T14:49:04.150Z,3.80
2022-08-02T14:51:36.167Z,3.55
2022-08-02T14:54:05.152Z,6.45
2022-08-02T14:56:38.843Z,3.85
2022-08-02T14:59:06.025Z,4.95
2022-08-02T15:01:32.893Z,4.78
2022-08-02T15:03:59.458Z,5.47
2022-08-02T15:06:32.010Z,6.00
2022-08-02T15:08:59.596Z,6.00
2022-08-02T15:11:26.511Z,2.55
2022-08-02T15:13:52.977Z,2.92
2022-08-02T15:16:19.794Z,3.17
2022-08-02T15:18:46.379Z,4.63
2022-08-02T15:21:41.304Z,4.97
2022-08-02T15:23:59.767Z,8.10
2022-08-02T15:26:26.317Z,8.80
2022-08-02T15:28:55.754Z,3.97
2022-08-02T15:31:33.132Z,3.60
2022-08-02T15:34:00.968Z,3.00
2022-08-02T15:36:29.853Z,3.53
2022-08-02T15:38:57.617Z,5.55
2022-08-02T15:41:24.419Z,4.22
2022-08-02T15:44:00.107Z,2.10
2022-08-02T15:46:30.799Z,2.65
2022-08-02T15:49:00.025Z,3.38
2022-08-02T15:51:27.557Z,2.97
2022-08-02T15:54:11.210Z,3.08
2022-08-02T15:56:37.730Z,2.60
2022-08-02T15:59:04.385Z,2.97
2022-08-02T16:01:32.164Z,3.75
2022-08-02T16:04:06.135Z,2.05
2022-08-02T16:06:32.741Z,2.75
2022-08-02T16:08:59.257Z,4.28
2022-08-02T16:11:25.734Z,3.50
2022-08-02T16:13:55.174Z,2.28
2022-08-02T16:16:23.528Z,3.50
2022-08-02T16:18:50.158Z,4.47
2022-08-02T16:21:16.921Z,3.50
2022-08-02T16:23:58.674Z,3.00
2022-08-02T16:26:30.889Z,3.47
2022-08-02T16:28:58.454Z,2.45
2022-08-02T16:31:24.937Z,3.80
2022-08-02T16:33:56.391Z,2.20
2022-08-02T16:36:25.090Z,3.30
2022-08-02T16:38:52.585Z,3.63
2022-08-02T16:41:19.205Z,5.47
2022-08-02T16:43:45.827Z,2.95
2022-08-02T16:46:12.325Z,2.65
2022-08-02T16:48:39.815Z,2.47
2022-08-02T16:51:13.656Z,2.03
2022-08-02T16:53:59.240Z,4.57
2022-08-02T16:56:30.377Z,5.90
2022-08-02T16:58:59.525Z,2.75
2022-08-02T17:02:02.730Z,2.13
2022-08-02T17:04:15.590Z,4.60
2022-08-02T17:06:47.617Z,4.22
2022-08-02T17:10:04.372Z,5.40
2022-08-02T17:12:11.063Z,3.80
2022-08-02T17:14:55.523Z,2.20
2022-08-02T17:17:33.539Z,4.57
2022-08-02T17:20:09.935Z,4.18
2022-08-02T17:22:36.894Z,4.38
2022-08-02T17:25:05.021Z,4.50
2022-08-02T17:27:31.494Z,4.97
2022-08-02T17:29:59.753Z,3.47
2022-08-02T17:32:29.147Z,3.22
2022-08-02T17:35:00.130Z,3.40
2022-08-02T17:37:30.515Z,7.65
2022-08-02T17:39:59.738Z,2.22
2022-08-02T17:42:26.558Z,4.32
2022-08-02T17:44:55.109Z,4.80
2022-08-02T17:47:42.138Z,4.05
2022-08-02T17:50:09.656Z,2.50
2022-08-02T17:52:52.173Z,3.00
2022-08-02T17:55:19.891Z,3.10
2022-08-02T17:57:57.600Z,2.92
2022-08-02T18:00:35.217Z,5.40
2022-08-02T18:03:05.922Z,2.45
2022-08-02T18:05:40.023Z,5.15
2022-08-02T18:08:21.325Z,6.35
2022-08-02T18:10:49.773Z,3.05
2022-08-02T18:13:16.427Z,2.75
2022-08-02T18:18:30.494Z,2.22
2022-08-02T18:20:58.010Z,2.80
2022-08-02T18:23:24.515Z,7.22
2022-08-02T18:25:55.177Z,4.05
2022-08-02T18:28:22.278Z,2.33
2022-08-02T18:30:53.528Z,4.10
2022-08-02T18:33:59.272Z,4.93
2022-08-02T18:36:08.230Z,2.28
2022-08-02T18:38:35.211Z,3.00
2022-08-02T18:41:05.725Z,2.10
2022-08-02T18:43:43.346Z,2.97
2022-08-02T18:46:15.390Z,2.75
2022-08-02T18:48:46.467Z,2.90
2022-08-02T18:51:15.287Z,4.78
2022-08-02T18:53:43.119Z,4.43
2022-08-02T18:56:20.144Z,4.45
2022-08-02T18:58:51.837Z,2.58
2022-08-02T19:01:21.895Z,3.08
2022-08-02T19:03:59.725Z,4.10
2022-08-02T19:06:28.880Z,5.13
2022-08-02T19:09:06.018Z,4.53
2022-08-02T19:11:41.190Z,2.83
2022-08-02T19:14:08.336Z,2.85
2022-08-02T19:16:37.166Z,3.80
2022-08-02T19:19:07.509Z,4.15
2022-08-02T19:22:17.776Z,5.25
2022-08-02T19:24:20.701Z,2.97
2022-08-02T19:26:52.044Z,2.38
2022-08-02T19:29:25.117Z,3.50
2022-08-02T19:32:42.620Z,2.90
2022-08-02T19:34:58.656Z,2.35
2022-08-02T19:37:25.117Z,2.80
2022-08-02T19:40:04.081Z,3.40
2022-08-02T19:42:30.578Z,4.70
2022-08-02T19:45:17.172Z,5.00
2022-08-02T19:47:44.308Z,2.30
2022-08-02T19:50:25.917Z,4.95
2022-08-02T19:52:52.859Z,4.05
2022-08-02T19:55:58.816Z,3.60
2022-08-02T19:58:06.192Z,4.60
2022-08-02T20:00:36.299Z,3.85
2022-08-02T20:03:02.811Z,4.53
2022-08-02T20:05:29.374Z,3.28
2022-08-02T20:07:56.869Z,3.97
2022-08-02T20:13:10.557Z,4.75
2022-08-02T20:18:26.784Z,4.05
2022-08-02T20:20:55.361Z,5.18
2022-08-02T20:23:32.837Z,4.43
2022-08-02T20:26:02.171Z,5.28
2022-08-02T20:28:28.977Z,4.88
2022-08-02T20:30:55.579Z,4.80
2022-08-02T20:33:23.280Z,3.72
2022-08-02T20:35:53.356Z,7.38
2022-08-02T20:38:20.176Z,6.78
2022-08-02T20:40:51.660Z,4.40
2022-08-02T20:43:18.217Z,5.13
2022-08-02T20:45:45.852Z,5.38
2022-08-02T20:48:12.693Z,3.92
2022-08-02T20:50:49.475Z,4.20
2022-08-02T20:53:24.027Z,13.75
2022-08-02T20:55:54.039Z,7.13
2022-08-02T20:58:26.573Z,4.63
2022-08-02T21:00:56.629Z,5.05
2022-08-02T21:03:23.409Z,6.90
2022-08-02T21:05:54.880Z,4.68
2022-08-02T21:08:23.387Z,6.93
2022-08-02T21:10:52.657Z,5.47
2022-08-02T21:13:23.232Z,7.60
2022-08-02T21:15:51.338Z,5.13
2022-08-02T21:18:22.741Z,6.88
2022-08-02T21:20:57.674Z,4.38
2022-08-02T21:23:24.359Z,6.45
2022-08-02T21:25:57.434Z,6.20
2022-08-02T21:28:24.844Z,6.53
2022-08-02T21:31:09.859Z,6.50
2022-08-02T21:33:57.587Z,7.32
2022-08-02T21:36:22.959Z,5.32
2022-08-02T21:38:58.107Z,5.80
2022-08-02T21:41:24.616Z,5.05
2022-08-02T21:44:06.960Z,4.18
2022-08-02T21:46:33.571Z,6.82
2022-08-02T21:49:02.328Z,8.25
2022-08-02T21:51:29.123Z,5.47
2022-08-02T21:54:17.459Z,5.10
2022-08-02T21:56:48.445Z,7.97
2022-08-02T21:59:17.008Z,7.90
2022-08-02T22:01:52.974Z,5.65
2022-08-02T22:04:21.055Z,7.07
2022-08-02T22:06:49.036Z,5.05
2022-08-02T22:09:42.400Z,6.53
2022-08-02T22:12:10.229Z,6.70
2022-08-02T22:14:39.667Z,7.55
2022-08-02T22:17:08.685Z,8.45
2022-08-02T22:19:36.357Z,6.88
2022-08-02T22:22:02.983Z,5.13
2022-08-02T22:24:29.772Z,6.57
2022-08-02T22:26:57.019Z,5.03
2022-08-02T22:29:23.723Z,6.55
2022-08-02T22:31:50.335Z,7.45
2022-08-02T22:34:37.081Z,5.60
2022-08-02T22:37:07.240Z,4.63
2022-08-02T22:39:34.010Z,7.90
2022-08-02T22:42:02.051Z,5.28
2022-08-02T22:44:33.944Z,7.47
2022-08-02T22:47:06.866Z,5.13
2022-08-02T22:49:38.750Z,4.45
2022-08-02T22:52:12.368Z,7.47
2022-08-02T22:54:40.753Z,6.50
2022-08-02T22:57:11.216Z,9.55
2022-08-02T22:58:43.669Z,4.07
2022-08-02T22:58:54.799Z,3.63
2022-08-02T22:58:54.955Z,5.03
2022-08-02T22:59:39.748Z,4.45
2022-08-02T23:02:07.135Z,5.43
2022-08-02T23:04:34.092Z,9.27
2022-08-02T23:07:00.591Z,4.95
2022-08-02T23:09:27.239Z,4.80
2022-08-02T23:11:53.844Z,7.50
2022-08-02T23:14:20.540Z,5.13
2022-08-02T23:17:05.642Z,4.45
2022-08-02T23:19:50.800Z,4.35
2022-08-02T23:22:29.910Z,7.85
2022-08-02T23:25:00.365Z,5.97
2022-08-02T23:27:26.988Z,7.20
2022-08-02T23:29:53.650Z,5.85
2022-08-02T23:32:22.898Z,6.40
2022-08-02T23:34:52.702Z,7.63
2022-08-02T23:37:19.264Z,5.65
2022-08-02T23:39:46.214Z,6.55
2022-08-02T23:42:12.692Z,5.63
2022-08-02T23:44:39.382Z,6.40
2022-08-02T23:47:06.210Z,6.13
2022-08-02T23:49:32.935Z,6.80
2022-08-02T23:52:01.906Z,7.05
2022-08-02T23:54:28.892Z,6.38
2022-08-02T23:56:55.744Z,5.97
2022-08-02T23:59:22.527Z,5.72
